Time;durP1;ratioP1;P1;durP2;ratioP2;P2;SDS_P1;SDS_P2;PMS_P1;PMS_P2;Temp;Humidity;BMP_temperature;BMP_pressure;BME280_temperature;BME280_humidity;BME280_pressure;Samples;Min_cycle;Max_cycle;Signal;HPM_P1;HPM_P2
2021/05/03 00:00:58;;;;;;;23.95;11.63;;;;;;;2.41;74.24;102064.75;5101268;28;20033;-63
2021/05/03 00:03:23;;;;;;;24.00;11.30;;;;;;;2.36;74.60;102055.75;5104191;28;20042;-63
2021/05/03 00:05:56;;;;;;;24.13;10.98;;;;;;;2.40;74.80;102057.75;5102691;28;20024;-63
2021/05/03 00:08:21;;;;;;;22.60;10.90;;;;;;;2.30;74.67;102055.44;5103609;28;20040;-63
2021/05/03 00:10:47;;;;;;;23.42;11.10;;;;;;;2.29;74.52;102051.00;5102897;28;20030;-63
2021/05/03 00:13:12;;;;;;;23.25;11.05;;;;;;;2.26;74.96;102048.22;5102272;28;20031;-61
2021/05/03 00:15:37;;;;;;;23.08;11.10;;;;;;;2.20;75.16;102054.00;5104088;28;20023;-61
2021/05/03 00:18:03;;;;;;;22.85;10.82;;;;;;;2.15;75.61;102049.31;5101611;28;20024;-61
2021/05/03 00:20:28;;;;;;;22.35;10.73;;;;;;;2.07;75.73;102048.88;5104635;28;20058;-62
2021/05/03 00:22:54;;;;;;;22.83;10.70;;;;;;;2.01;75.77;102045.88;5101859;28;20401;-62
2021/05/03 00:25:20;;;;;;;22.70;11.00;;;;;;;1.94;76.28;102043.72;5103463;28;20561;-61
2021/05/03 00:27:45;;;;;;;23.65;11.50;;;;;;;1.72;77.12;102048.59;5102753;28;20036;-62
2021/05/03 00:30:11;;;;;;;24.75;12.15;;;;;;;1.58;78.64;102049.47;5102163;28;20103;-62
2021/05/03 00:32:36;;;;;;;25.80;12.23;;;;;;;1.34;79.53;102046.25;5104234;28;20038;-62
2021/05/03 00:35:01;;;;;;;24.40;11.98;;;;;;;1.32;80.63;102056.59;5100929;28;20425;-62
2021/05/03 00:37:27;;;;;;;24.83;11.90;;;;;;;1.45;82.00;102053.03;5104315;28;20020;-62
2021/05/03 00:39:52;;;;;;;24.77;12.30;;;;;;;1.33;82.32;102050.59;5102135;28;20020;-62
2021/05/03 00:42:17;;;;;;;23.88;11.75;;;;;;;1.44;82.50;102053.81;5102680;28;20039;-62
2021/05/03 00:44:43;;;;;;;24.90;12.18;;;;;;;1.44;82.99;102055.56;5103642;28;20373;-62
2021/05/03 00:47:09;;;;;;;25.08;12.45;;;;;;;1.49;82.36;102054.13;5101392;28;20020;-62
2021/05/03 00:49:34;;;;;;;24.23;12.30;;;;;;;1.58;83.07;102059.91;5104397;28;20382;-62
2021/05/03 00:51:59;;;;;;;25.35;12.40;;;;;;;1.57;83.37;102052.88;5100939;28;20024;-62
2021/05/03 00:54:25;;;;;;;25.33;12.13;;;;;;;1.64;83.33;102049.81;5103713;28;20024;-62
2021/05/03 00:56:50;;;;;;;25.10;11.57;;;;;;;1.69;82.71;102050.09;5101872;28;20015;-62
2021/05/03 00:59:16;;;;;;;24.98;12.05;;;;;;;1.62;83.24;102046.25;5102730;28;20039;-62
2021/05/03 01:01:41;;;;;;;22.90;11.52;;;;;;;1.60;83.81;102044.34;5105677;28;20103;-62
2021/05/03 01:04:07;;;;;;;24.40;12.45;;;;;;;1.58;84.32;102052.06;5105314;28;20031;-62
2021/05/03 01:06:32;;;;;;;26.15;12.45;;;;;;;1.55;85.04;102044.97;5108137;28;20462;-62
2021/05/03 01:08:58;;;;;;;25.65;12.45;;;;;;;1.63;84.03;102050.66;5104727;28;20020;-62
2021/05/03 01:11:23;;;;;;;25.75;12.23;;;;;;;1.66;83.92;102047.31;5107251;28;20024;-62
2021/05/03 01:13:50;;;;;;;25.02;12.73;;;;;;;1.68;83.23;102035.28;5105668;28;20424;-62
2021/05/03 01:16:15;;;;;;;24.35;11.77;;;;;;;1.68;82.44;102033.56;5105770;28;20216;-62
2021/05/03 01:18:40;;;;;;;24.83;12.30;;;;;;;1.55;81.70;102041.47;5107260;28;20031;-62
2021/05/03 01:21:06;;;;;;;23.17;11.68;;;;;;;1.45;80.61;102033.91;5104479;28;20034;-62
2021/05/03 01:23:32;;;;;;;25.20;12.18;;;;;;;1.53;81.70;102032.63;5107508;28;20088;-62
2021/05/03 01:25:57;;;;;;;26.15;13.32;;;;;;;1.54;83.41;102034.44;5104715;28;20083;-60
2021/05/03 01:28:23;;;;;;;23.85;11.10;;;;;;;1.42;81.43;102039.81;5106510;28;20028;-61
2021/05/03 01:30:49;;;;;;;23.98;11.65;;;;;;;1.35;81.16;102041.13;5106085;28;20420;-61
2021/05/03 01:33:16;;;;;;;24.08;12.00;;;;;;;1.27;80.86;102037.19;5105826;28;20032;-61
2021/05/03 01:35:43;;;;;;;24.25;11.85;;;;;;;1.25;80.96;102037.91;5106492;28;20031;-60
2021/05/03 01:38:09;;;;;;;23.50;11.65;;;;;;;1.13;80.83;102041.53;5104336;28;20084;-61
2021/05/03 01:40:40;;;;;;;23.65;11.13;;;;;;;1.09;81.20;102043.88;5107590;28;20028;-61
2021/05/03 01:43:21;;;;;;;23.70;12.05;;;;;;;1.05;81.63;102045.41;5100516;28;20035;-61
2021/05/03 01:45:48;;;;;;;24.73;11.98;;;;;;;1.11;82.42;102039.66;5105736;28;20087;-61
2021/05/03 01:48:19;;;;;;;25.23;12.43;;;;;;;1.11;82.20;102043.16;5105150;28;20024;-62
2021/05/03 01:50:45;;;;;;;24.75;12.57;;;;;;;1.12;83.40;102041.44;5106031;28;20027;-61
2021/05/03 01:53:11;;;;;;;24.27;12.30;;;;;;;1.13;82.50;102035.44;5104406;28;20064;-61
2021/05/03 01:55:37;;;;;;;26.05;12.82;;;;;;;1.10;81.81;102040.47;5106684;28;20023;-61
2021/05/03 01:58:05;;;;;;;24.63;12.38;;;;;;;1.01;81.39;102032.97;5103830;28;20047;-61
2021/05/03 02:00:31;;;;;;;24.80;12.80;;;;;;;0.95;81.59;102036.09;5099441;28;20066;-61
2021/05/03 02:02:57;;;;;;;26.50;13.00;;;;;;;1.06;82.65;102033.25;5106779;28;20020;-61
2021/05/03 02:05:24;;;;;;;26.95;14.52;;;;;;;1.03;83.22;102033.97;5104737;28;20076;-62
2021/05/03 02:08:04;;;;;;;25.27;13.52;;;;;;;1.02;81.99;102030.47;5105675;28;20462;-61
2021/05/03 02:10:31;;;;;;;26.45;13.90;;;;;;;1.02;83.05;102034.75;5103366;28;20053;-61
2021/05/03 02:12:56;;;;;;;28.98;16.52;;;;;;;1.04;86.12;102034.06;5105445;28;20039;-61
2021/05/03 02:15:23;;;;;;;28.45;16.25;;;;;;;1.08;86.43;102029.03;5104535;28;20023;-60
2021/05/03 02:17:48;;;;;;;28.40;16.25;;;;;;;1.03;87.29;102031.34;5104906;28;20054;-61
2021/05/03 02:20:16;;;;;;;29.02;17.65;;;;;;;1.03;88.46;102034.88;5105632;28;20090;-61
2021/05/03 02:22:41;;;;;;;29.60;17.45;;;;;;;1.05;88.07;102034.97;5103981;28;20072;-61
2021/05/03 02:25:07;;;;;;;29.30;17.10;;;;;;;1.09;86.91;102028.25;5106184;28;20055;-60
2021/05/03 02:27:32;;;;;;;29.13;16.50;;;;;;;1.00;87.25;102032.06;5103506;28;20374;-61
2021/05/03 02:29:58;;;;;;;30.05;18.10;;;;;;;0.98;88.59;102018.06;5106195;28;20518;-62
2021/05/03 02:32:23;;;;;;;32.22;17.83;;;;;;;1.01;89.86;102033.88;5103898;28;20022;-63
2021/05/03 02:34:49;;;;;;;28.67;16.90;;;;;;;1.00;88.94;102024.25;5105107;28;20028;-63
2021/05/03 02:37:14;;;;;;;32.63;17.83;;;;;;;1.08;89.69;102022.13;5104923;28;20031;-63
2021/05/03 02:39:42;;;;;;;29.50;17.17;;;;;;;1.08;90.12;102021.22;5103555;28;20085;-63
2021/05/03 02:42:09;;;;;;;35.55;18.00;;;;;;;1.11;90.28;102026.66;5106320;28;20430;-63
2021/05/03 02:44:38;;;;;;;31.52;18.08;;;;;;;1.18;90.53;102015.75;5102848;28;20107;-63
2021/05/03 02:47:08;;;;;;;29.08;17.77;;;;;;;1.22;91.04;102020.38;5098880;28;20477;-62
2021/05/03 02:49:34;;;;;;;30.10;18.30;;;;;;;1.24;90.81;102013.56;5098950;28;20051;-62
2021/05/03 02:52:00;;;;;;;30.65;17.90;;;;;;;1.28;90.42;102015.56;5105819;28;20028;-64
2021/05/03 02:54:25;;;;;;;29.85;17.67;;;;;;;1.33;89.85;102013.22;5103459;28;20080;-63
2021/05/03 02:56:51;;;;;;;33.33;17.52;;;;;;;1.34;90.14;102010.69;5104905;28;20040;-62
2021/05/03 02:59:16;;;;;;;30.08;17.58;;;;;;;1.35;90.12;102015.09;5104610;28;20027;-64
2021/05/03 03:01:41;;;;;;;30.88;18.25;;;;;;;1.42;89.22;102005.06;5103359;28;20020;-63
2021/05/03 03:04:07;;;;;;;31.58;17.60;;;;;;;1.42;89.34;102012.88;5105827;28;20104;-63
2021/05/03 03:06:32;;;;;;;29.77;17.98;;;;;;;1.42;89.25;102005.06;5102186;28;20069;-63
2021/05/03 03:08:57;;;;;;;29.52;17.27;;;;;;;1.43;89.27;102001.63;5105227;28;20027;-63
2021/05/03 03:11:23;;;;;;;30.35;17.50;;;;;;;1.45;88.97;102006.13;5103215;28;20050;-63
2021/05/03 03:13:49;;;;;;;31.08;17.60;;;;;;;1.46;88.78;101999.22;5103930;28;20024;-63
2021/05/03 03:16:18;;;;;;;32.05;18.08;;;;;;;1.43;89.46;102007.75;5104389;28;20024;-61
2021/05/03 03:18:43;;;;;;;29.48;17.25;;;;;;;1.49;88.57;102000.28;5103430;28;20024;-62
2021/05/03 03:21:09;;;;;;;28.17;17.10;;;;;;;1.50;88.75;102004.72;5105100;28;20031;-62
2021/05/03 03:23:34;;;;;;;28.92;17.27;;;;;;;1.53;88.52;102009.19;5101391;28;20040;-62
2021/05/03 03:25:59;;;;;;;30.73;17.27;;;;;;;1.54;88.50;102011.00;5105319;28;20028;-62
2021/05/03 03:28:24;;;;;;;29.70;17.23;;;;;;;1.59;88.56;102013.84;5101324;28;20897;-61
2021/05/03 03:30:50;;;;;;;33.13;17.42;;;;;;;1.59;87.88;102001.75;5103890;28;20016;-61
2021/05/03 03:33:15;;;;;;;29.45;16.55;;;;;;;1.55;87.91;102003.25;5104284;28;20027;-62
2021/05/03 03:35:41;;;;;;;30.13;17.13;;;;;;;1.54;87.81;102005.78;5102424;28;20032;-61
2021/05/03 03:38:06;;;;;;;29.20;16.40;;;;;;;1.59;87.30;102011.25;5105305;28;20037;-62
2021/05/03 03:40:31;;;;;;;30.35;17.42;;;;;;;1.51;87.96;102011.69;5101612;28;20060;-61
2021/05/03 03:42:57;;;;;;;30.45;16.48;;;;;;;1.49;87.76;102005.50;5104358;28;20034;-62
2021/05/03 03:45:22;;;;;;;30.23;16.30;;;;;;;1.48;87.96;102001.09;5103016;28;20028;-62
2021/05/03 03:47:48;;;;;;;29.67;17.08;;;;;;;1.43;88.21;102007.75;5103221;28;20070;-62
2021/05/03 03:50:13;;;;;;;28.48;16.80;;;;;;;1.44;88.25;102003.44;5104138;28;20114;-62
2021/05/03 03:52:38;;;;;;;29.63;17.15;;;;;;;1.43;88.65;101996.41;5101881;28;20485;-62
2021/05/03 03:55:05;;;;;;;30.98;16.88;;;;;;;1.49;87.97;101996.81;5104925;28;20051;-61
2021/05/03 03:57:30;;;;;;;30.60;17.48;;;;;;;1.46;87.88;101994.91;5101523;28;20028;-61
2021/05/03 03:59:58;;;;;;;30.45;17.40;;;;;;;1.46;87.87;102001.84;5104397;28;20482;-61
2021/05/03 04:02:23;;;;;;;32.33;17.90;;;;;;;1.43;87.68;101999.94;5102713;28;20019;-62
2021/05/03 04:10:24;;;;;;;32.45;19.58;;;;;;;1.43;88.01;101996.41;5098133;28;20110;-62
2021/05/03 04:21:16;;;;;;;33.53;20.92;;;;;;;1.49;88.03;101988.97;5063382;28;20142;-62
2021/05/03 04:23:49;;;;;;;32.75;20.63;;;;;;;1.49;87.68;101986.38;5059128;28;20511;-62
2021/05/03 04:26:16;;;;;;;33.58;20.88;;;;;;;1.58;87.17;101994.72;5060858;28;20045;-61
2021/05/03 04:28:43;;;;;;;35.50;21.48;;;;;;;1.59;86.76;101999.13;5059206;28;20029;-62
2021/05/03 04:31:09;;;;;;;34.70;20.42;;;;;;;1.64;86.50;101983.75;5061690;28;20028;-62
2021/05/03 04:33:34;;;;;;;33.97;20.23;;;;;;;1.68;86.06;101981.41;5058495;28;20423;-62
2021/05/03 04:36:00;;;;;;;35.58;21.88;;;;;;;1.69;85.75;101993.66;5063797;28;20029;-61
2021/05/03 04:38:26;;;;;;;36.53;20.75;;;;;;;1.70;85.95;101990.25;5066663;28;20040;-62
2021/05/03 04:40:52;;;;;;;32.30;20.05;;;;;;;1.85;84.47;101991.94;5066513;28;20035;-62
2021/05/03 04:43:18;;;;;;;32.42;19.70;;;;;;;1.88;83.98;101992.13;5066525;28;20032;-62
2021/05/03 04:45:44;;;;;;;32.20;19.73;;;;;;;1.97;82.88;101991.78;5066545;28;20036;-61
2021/05/03 04:48:09;;;;;;;31.50;20.05;;;;;;;2.02;82.81;101993.81;5062612;28;20040;-62
2021/05/03 04:50:34;;;;;;;33.13;20.33;;;;;;;2.06;82.24;101982.75;5065926;28;20040;-61
2021/05/03 04:53:00;;;;;;;32.10;19.73;;;;;;;2.08;82.14;101990.66;5090365;28;20085;-61
2021/05/03 04:55:26;;;;;;;33.13;19.73;;;;;;;2.14;81.70;101984.88;5105786;28;20132;-62
2021/05/03 04:57:51;;;;;;;32.80;20.08;;;;;;;2.19;80.99;101988.66;5107131;28;20039;-61
2021/05/03 05:00:17;;;;;;;32.60;18.73;;;;;;;2.22;80.56;101989.72;5106861;28;20462;-62
2021/05/03 05:02:42;;;;;;;31.10;18.70;;;;;;;2.29;80.10;101984.84;5105211;28;20470;-61
2021/05/03 05:05:10;;;;;;;31.33;18.40;;;;;;;2.34;79.03;101983.41;5108099;28;20470;-62
2021/05/03 05:07:36;;;;;;;29.63;17.10;;;;;;;2.42;78.47;101996.06;5104801;28;20367;-62
2021/05/03 05:10:02;;;;;;;30.50;17.23;;;;;;;2.51;77.95;101984.34;5108277;28;20434;-62
2021/05/03 05:12:27;;;;;;;29.00;16.80;;;;;;;2.55;78.13;101983.69;5105520;28;20114;-61
2021/05/03 05:14:53;;;;;;;29.33;17.42;;;;;;;2.62;76.68;101985.81;5106679;28;20038;-62
2021/05/03 05:17:18;;;;;;;28.33;16.95;;;;;;;2.70;76.96;101988.88;5106052;28;20031;-61
2021/05/03 05:19:43;;;;;;;28.25;16.17;;;;;;;2.80;75.35;101988.56;5105335;28;20027;-62
2021/05/03 05:22:11;;;;;;;28.48;16.55;;;;;;;2.88;75.68;101983.75;5107491;28;20417;-62
2021/05/03 05:24:36;;;;;;;29.15;16.38;;;;;;;2.98;74.56;101986.03;5100388;28;20048;-62
2021/05/03 05:27:03;;;;;;;27.98;15.80;;;;;;;3.06;74.33;101991.66;5102733;28;20477;-60
2021/05/03 05:29:28;;;;;;;28.95;15.15;;;;;;;3.12;73.30;101984.16;5103559;28;20024;-61
2021/05/03 05:31:54;;;;;;;26.38;13.95;;;;;;;3.20;72.39;101987.16;5100303;28;20070;-60
2021/05/03 05:34:19;;;;;;;29.15;15.15;;;;;;;3.25;73.08;101997.06;5101278;28;20034;-60
2021/05/03 05:36:44;;;;;;;26.95;15.40;;;;;;;3.28;73.44;101991.97;5101527;28;20500;-61
2021/05/03 05:39:10;;;;;;;26.67;14.40;;;;;;;3.34;71.79;101994.03;5100469;28;20527;-59
2021/05/03 05:41:35;;;;;;;28.40;15.05;;;;;;;3.37;70.99;101982.84;5102802;28;20124;-60
2021/05/03 05:44:01;;;;;;;27.40;15.10;;;;;;;3.36;71.15;101984.53;5100213;28;20016;-59
2021/05/03 05:46:26;;;;;;;27.23;14.70;;;;;;;3.39;71.14;101984.69;5098415;28;20020;-62
2021/05/03 05:48:52;;;;;;;25.17;13.27;;;;;;;3.42;69.60;101974.41;5100651;28;20024;-61
2021/05/03 05:51:17;;;;;;;26.73;14.07;;;;;;;3.44;69.57;101983.22;5101398;28;20032;-62
2021/05/03 05:53:43;;;;;;;27.08;14.13;;;;;;;3.49;69.54;101978.22;5100442;28;20052;-60
2021/05/03 05:56:08;;;;;;;28.10;12.95;;;;;;;3.52;68.51;101980.09;5106200;28;20088;-59
2021/05/03 05:58:34;;;;;;;27.08;13.70;;;;;;;3.60;68.63;101994.47;5099445;28;20024;-62
2021/05/03 06:01:01;;;;;;;27.20;13.73;;;;;;;3.65;69.40;101987.75;5107054;28;20355;-60
2021/05/03 06:03:27;;;;;;;26.75;14.07;;;;;;;3.74;68.87;101982.09;5101792;28;20425;-60
2021/05/03 06:05:53;;;;;;;29.98;14.02;;;;;;;3.82;68.03;101981.66;5104201;28;20023;-59
2021/05/03 06:08:19;;;;;;;27.05;13.55;;;;;;;3.90;67.28;101987.25;5105540;28;20024;-59
2021/05/03 06:10:44;;;;;;;28.15;14.25;;;;;;;4.06;67.61;101985.41;5103436;28;20027;-59
2021/05/03 06:13:09;;;;;;;26.75;13.35;;;;;;;4.13;66.90;101987.50;5107689;28;20049;-59
2021/05/03 06:15:35;;;;;;;25.48;13.02;;;;;;;4.24;65.94;101981.09;5102009;28;20023;-60
2021/05/03 06:18:00;;;;;;;27.77;13.38;;;;;;;4.33;66.19;101972.78;5101895;28;20066;-61
2021/05/03 06:20:26;;;;;;;26.40;13.02;;;;;;;4.47;64.98;101971.72;5106623;28;20450;-60
2021/05/03 06:22:59;;;;;;;26.30;13.00;;;;;;;4.61;63.98;101971.44;5101025;28;20020;-59
2021/05/03 06:25:25;;;;;;;25.13;12.65;;;;;;;4.69;63.66;101970.09;5096347;28;20059;-59
2021/05/03 06:27:50;;;;;;;25.17;12.40;;;;;;;4.81;62.94;101975.88;5104521;28;20391;-60
2021/05/03 06:30:16;;;;;;;26.67;13.02;;;;;;;4.92;63.10;101978.97;5101749;28;20056;-59
2021/05/03 06:32:41;;;;;;;25.48;12.30;;;;;;;5.07;61.54;101978.81;5102472;28;20032;-61
2021/05/03 06:35:07;;;;;;;26.45;12.23;;;;;;;5.21;62.85;101972.44;5101565;28;20074;-61
2021/05/03 06:37:32;;;;;;;24.30;11.10;;;;;;;5.36;61.16;101969.59;5100514;28;20032;-61
2021/05/03 06:39:58;;;;;;;23.85;10.98;;;;;;;5.55;61.09;101971.28;5100747;28;20020;-61
2021/05/03 06:42:23;;;;;;;24.33;11.07;;;;;;;5.72;58.99;101973.72;5100415;28;20047;-60
2021/05/03 06:44:48;;;;;;;23.95;11.65;;;;;;;5.87;59.52;101971.75;5100732;28;20383;-60
2021/05/03 06:47:15;;;;;;;24.90;11.00;;;;;;;6.01;56.97;101976.69;5103896;28;20047;-60
2021/05/03 06:49:41;;;;;;;23.08;10.48;;;;;;;6.13;57.16;101979.84;5096312;28;20433;-60
2021/05/03 06:52:06;;;;;;;24.05;11.15;;;;;;;6.25;56.13;101980.31;5098628;28;20057;-60
2021/05/03 06:54:31;;;;;;;27.08;12.30;;;;;;;6.35;56.98;101976.34;5098397;28;20028;-61
2021/05/03 06:56:57;;;;;;;29.55;12.18;;;;;;;6.45;56.58;101967.06;5100939;28;20034;-60
2021/05/03 06:59:23;;;;;;;27.67;13.18;;;;;;;6.51;56.10;101979.56;5099857;27;20027;-60
2021/05/03 07:01:49;;;;;;;26.85;13.27;;;;;;;6.61;56.22;101984.34;5098971;28;20027;-60
2021/05/03 07:04:15;;;;;;;27.38;14.23;;;;;;;6.67;56.67;101967.91;5096855;28;20032;-60
2021/05/03 07:06:40;;;;;;;28.23;15.07;;;;;;;6.79;57.34;101973.66;5099377;27;20051;-62
2021/05/03 07:09:08;;;;;;;28.42;14.93;;;;;;;6.94;56.94;101979.47;5095818;28;20059;-62
2021/05/03 07:11:34;;;;;;;26.77;14.40;;;;;;;7.09;56.99;101975.59;5100828;28;20016;-62
2021/05/03 07:13:59;;;;;;;30.33;16.83;;;;;;;7.12;57.14;101975.72;5096836;27;20028;-63
2021/05/03 07:16:25;;;;;;;30.35;15.68;;;;;;;7.09;57.27;101967.72;5100392;28;20035;-61
2021/05/03 07:18:50;;;;;;;28.58;15.98;;;;;;;7.14;58.00;101966.16;5097210;28;20035;-62
2021/05/03 07:21:16;;;;;;;30.65;17.45;;;;;;;7.24;57.81;101968.28;5098791;28;20027;-61
2021/05/03 07:23:41;;;;;;;31.73;18.00;;;;;;;7.30;57.95;101965.88;5097210;28;20395;-60
2021/05/03 07:26:08;;;;;;;30.92;18.85;;;;;;;7.39;58.39;101959.16;5098319;28;20028;-59
2021/05/03 07:28:34;;;;;;;32.25;19.00;;;;;;;7.50;58.33;101961.31;5097496;28;20077;-60
2021/05/03 07:30:59;;;;;;;31.35;19.10;;;;;;;7.53;57.15;101971.06;5096763;28;20115;-62
2021/05/03 07:33:26;;;;;;;31.40;18.60;;;;;;;7.54;56.27;101964.94;5098353;28;20520;-60
2021/05/03 07:35:51;;;;;;;32.83;18.13;;;;;;;7.67;56.90;101955.72;5097058;28;20030;-61
2021/05/03 07:38:17;;;;;;;33.53;18.85;;;;;;;7.73;55.27;101965.56;5094928;28;20028;-62
2021/05/03 07:40:42;;;;;;;32.58;18.55;;;;;;;7.77;56.57;101959.56;5101306;28;20072;-61
2021/05/03 07:43:08;;;;;;;31.02;18.75;;;;;;;8.01;55.75;101954.25;5101234;28;20470;-61
2021/05/03 07:45:33;;;;;;;31.45;18.20;;;;;;;8.18;54.10;101957.38;5102330;28;20019;-60
2021/05/03 07:47:59;;;;;;;33.38;17.75;;;;;;;8.29;53.71;101949.84;5101828;28;20039;-61
2021/05/03 07:50:24;;;;;;;29.92;17.13;;;;;;;8.40;53.59;101947.53;5098998;28;20020;-60
2021/05/03 07:52:49;;;;;;;30.70;17.27;;;;;;;8.46;52.43;101945.13;5102135;28;20522;-60
2021/05/03 07:55:16;;;;;;;32.80;18.65;;;;;;;8.46;53.13;101939.84;5104499;28;20027;-60
2021/05/03 07:57:41;;;;;;;29.83;17.08;;;;;;;8.47;52.08;101937.25;5099468;28;20075;-59
2021/05/03 08:00:08;;;;;;;29.60;15.98;;;;;;;8.65;51.25;101946.56;5101320;28;20499;-62
2021/05/03 08:02:33;;;;;;;29.92;16.88;;;;;;;8.67;51.12;101939.59;5102432;28;20035;-61
2021/05/03 08:04:58;;;;;;;29.40;16.50;;;;;;;8.88;50.87;101939.31;5099476;28;20020;-61
2021/05/03 08:07:24;;;;;;;29.45;16.05;;;;;;;9.01;50.05;101932.66;5100428;28;20023;-62
2021/05/03 08:09:49;;;;;;;29.88;16.85;;;;;;;9.07;51.04;101941.66;5100074;28;20115;-62
2021/05/03 08:12:14;;;;;;;30.45;16.98;;;;;;;9.17;49.90;101939.25;5097833;28;20184;-62
2021/05/03 08:14:40;;;;;;;28.92;16.25;;;;;;;9.30;49.57;101922.03;5102450;28;20428;-62
2021/05/03 08:17:08;;;;;;;30.00;16.40;;;;;;;9.50;49.38;101922.56;5103417;28;20062;-62
2021/05/03 08:19:34;;;;;;;30.75;16.95;;;;;;;9.86;48.39;101925.22;5101414;28;20470;-62
2021/05/03 08:22:01;;;;;;;28.95;16.25;;;;;;;10.23;47.79;101917.28;5099181;28;21969;-63
2021/05/03 08:24:31;;;;;;;29.50;16.58;;;;;;;10.74;47.27;101924.56;5097085;28;20051;-60
2021/05/03 08:26:58;;;;;;;30.17;16.25;;;;;;;11.26;45.42;101915.91;5099740;28;20032;-61
2021/05/03 08:29:24;;;;;;;28.83;15.73;;;;;;;11.64;45.21;101913.91;5097497;28;20020;-62
2021/05/03 08:31:49;;;;;;;29.38;16.48;;;;;;;12.10;44.48;101907.59;5096928;28;20028;-61
2021/05/03 08:34:14;;;;;;;28.60;15.27;;;;;;;12.07;41.22;101937.59;5101489;28;20031;-62
2021/05/03 08:36:40;;;;;;;27.17;14.93;;;;;;;12.05;41.41;101911.97;5098207;28;20032;-61
2021/05/03 08:39:06;;;;;;;28.52;15.25;;;;;;;12.00;41.17;101906.59;5097805;28;20378;-61
2021/05/03 08:41:34;;;;;;;28.95;15.15;;;;;;;11.60;42.47;101893.53;5095058;28;20035;-62
2021/05/03 08:44:00;;;;;;;29.05;15.75;;;;;;;11.47;41.78;101897.72;5099962;28;20111;-61
2021/05/03 08:46:27;;;;;;;27.42;15.57;;;;;;;11.41;42.36;101910.88;5097819;28;20084;-60
2021/05/03 08:49:07;;;;;;;28.83;15.85;;;;;;;11.70;42.30;101899.88;5094248;28;20378;-60
2021/05/03 08:54:10;;;;;;;28.70;14.93;;;;;;;11.89;40.73;101897.53;5098036;28;20106;-60
2021/05/03 08:56:36;;;;;;;28.90;15.05;;;;;;;11.95;40.87;101897.66;5095848;28;20032;-61
2021/05/03 08:59:02;;;;;;;27.80;15.88;;;;;;;11.74;41.24;101893.78;5096897;28;20024;-60
2021/05/03 09:01:27;;;;;;;28.52;15.88;;;;;;;11.78;40.66;101900.91;5094258;28;20031;-60
2021/05/03 09:03:54;;;;;;;29.63;14.50;;;;;;;12.05;41.58;101898.72;5097648;28;20102;-61
2021/05/03 09:06:20;;;;;;;28.63;16.23;;;;;;;11.95;43.26;101898.53;5097868;28;20423;-61
2021/05/03 09:08:45;;;;;;;27.25;14.82;;;;;;;11.90;41.77;101899.31;5096757;28;20072;-61
2021/05/03 09:11:15;;;;;;;29.23;15.57;;;;;;;12.03;42.25;101896.03;5096239;28;20100;-61
2021/05/03 09:13:41;;;;;;;28.52;15.23;;;;;;;12.27;40.30;101900.78;5100163;28;20028;-61
2021/05/03 09:16:22;;;;;;;29.98;15.75;;;;;;;12.74;41.36;101891.66;5091082;28;20020;-61
2021/05/03 09:18:48;;;;;;;29.48;16.20;;;;;;;12.78;39.55;101896.13;5096705;28;20040;-61
2021/05/03 09:21:21;;;;;;;29.45;15.80;;;;;;;12.84;39.55;101890.03;5097198;28;20370;-60
2021/05/03 09:24:03;;;;;;;30.67;15.95;;;;;;;13.47;38.32;101880.09;5100216;28;20193;-60
2021/05/03 09:26:45;;;;;;;28.55;14.30;;;;;;;13.41;37.94;101874.69;5097733;28;20047;-61
2021/05/03 09:29:29;;;;;;;;;;;;;;;14.00;37.84;101878.72;5102175;28;20036;-64
2021/05/03 09:32:00;;;;;;;26.95;15.05;;;;;;;13.81;36.19;101874.16;5099142;28;19956;-61
2021/05/03 09:34:46;;;;;;;27.52;13.45;;;;;;;13.90;36.11;101866.25;5098240;28;20249;-60
2021/05/03 09:37:17;;;;;;;27.17;14.30;;;;;;;13.63;36.21;101864.25;5098641;28;20047;-61
2021/05/03 09:40:14;;;;;;;28.02;12.95;;;;;;;13.92;35.58;101867.13;5098090;28;20023;-61
2021/05/03 09:42:50;;;;;;;29.42;14.93;;;;;;;13.58;36.58;101862.44;5050018;28;20044;-61
2021/05/03 09:45:30;;;;;;;26.95;15.02;;;;;;;13.94;37.08;101860.94;5050666;28;20504;-61
2021/05/03 09:47:57;;;;;;;27.58;14.45;;;;;;;14.60;34.96;101852.41;5049409;28;20044;-61
2021/05/03 09:50:30;;;;;;;27.73;15.23;;;;;;;13.98;35.13;101871.59;5049184;28;20572;-61
2021/05/03 09:53:05;;;;;;;;;;;;;;;14.39;36.25;101857.66;5051605;28;20138;-61
2021/05/03 09:55:38;;;;;;;27.08;15.00;;;;;;;15.43;34.36;101854.38;5051521;28;19919;-62
2021/05/03 09:58:06;;;;;;;27.75;15.48;;;;;;;15.58;32.89;101850.84;5049403;28;20565;-61
2021/05/03 10:00:40;;;;;;;28.40;15.20;;;;;;;14.79;33.37;101848.09;5050599;28;20060;-61
2021/05/03 10:03:46;;;;;;;27.27;14.07;;;;;;;14.60;34.85;101839.09;5050827;28;20058;-61
2021/05/03 10:06:16;;;;;;;27.52;15.23;;;;;;;13.83;35.94;101836.06;5042525;28;20123;-61
2021/05/03 10:08:45;;;;;;;26.95;14.77;;;;;;;13.82;36.00;101823.69;5041650;28;20025;-61
2021/05/03 10:11:15;;;;;;;27.35;14.50;;;;;;;14.03;34.62;101828.22;5042515;28;20163;-62
2021/05/03 10:13:42;;;;;;;27.58;15.52;;;;;;;14.90;33.92;101817.94;5041604;28;20041;-61
2021/05/03 10:16:09;;;;;;;26.17;14.15;;;;;;;14.78;33.40;101826.78;5042114;28;20033;-63
2021/05/03 10:18:40;;;;;;;25.45;14.52;;;;;;;13.93;35.66;101815.75;5061705;28;20074;-64
2021/05/03 10:21:11;;;;;;;27.63;15.05;;;;;;;13.52;36.23;101814.59;5104439;28;20024;-64
2021/05/03 10:23:38;;;;;;;28.67;15.80;;;;;;;13.88;36.71;101810.41;5105149;28;20031;-63
2021/05/03 10:26:04;;;;;;;28.35;15.25;;;;;;;14.39;35.96;101794.72;5104517;28;20027;-63
2021/05/03 10:28:29;;;;;;;27.15;14.77;;;;;;;13.64;36.32;101791.66;5106073;28;20020;-61
2021/05/03 10:30:59;;;;;;;27.10;15.07;;;;;;;13.97;36.23;101795.41;5102889;28;20023;-61
2021/05/03 10:33:37;;;;;;;26.98;15.13;;;;;;;13.78;35.25;101788.19;5098760;28;20032;-61
2021/05/03 10:36:05;;;;;;;27.65;14.30;;;;;;;14.13;33.67;101798.13;5101517;28;20040;-61
2021/05/03 10:38:36;;;;;;;27.30;13.30;;;;;;;14.34;34.24;101792.91;5105680;27;20046;-62
2021/05/03 10:41:03;;;;;;;27.27;14.18;;;;;;;14.68;33.99;101782.38;5103343;28;20469;-61
2021/05/03 10:43:41;;;;;;;27.25;14.30;;;;;;;15.23;33.84;101781.56;5105932;28;20065;-62
2021/05/03 10:49:05;;;;;;;26.83;13.85;;;;;;;15.80;31.66;101781.53;5103961;28;20069;-61
2021/05/03 10:52:08;;;;;;;26.65;14.50;;;;;;;15.40;32.22;101771.78;5100316;28;20478;-61
2021/05/03 10:54:49;;;;;;;27.50;14.70;;;;;;;14.67;34.06;101775.31;5101506;28;20065;-61
2021/05/03 10:57:14;;;;;;;25.90;12.82;;;;;;;15.14;32.32;101758.50;5103476;28;20023;-61
2021/05/03 10:59:43;;;;;;;25.25;13.23;;;;;;;15.61;32.54;101749.56;5104213;28;20130;-62
2021/05/03 11:02:10;;;;;;;26.45;13.55;;;;;;;15.65;31.92;101758.44;5104110;28;20023;-61
2021/05/03 11:04:38;;;;;;;28.73;14.32;;;;;;;14.80;33.25;101759.34;5103905;28;20051;-61
2021/05/03 11:07:05;;;;;;;26.80;14.20;;;;;;;15.02;33.38;101742.53;5104956;28;20030;-62
2021/05/03 11:09:54;;;;;;;27.48;14.27;;;;;;;14.72;33.23;101742.50;5103077;28;20028;-63
2021/05/03 11:12:22;;;;;;;26.52;12.75;;;;;;;14.28;32.60;101749.47;5100015;28;20119;-62
2021/05/03 11:15:13;;;;;;;23.52;11.45;;;;;;;14.27;31.70;101726.41;5102976;28;20359;-63
2021/05/03 11:18:15;;;;;;;24.52;11.88;;;;;;;15.20;31.57;101738.97;5099909;28;20040;-61
2021/05/03 11:20:58;;;;;;;24.95;13.25;;;;;;;15.06;31.71;101723.00;5100071;28;20055;-61
2021/05/03 11:23:33;;;;;;;25.83;13.75;;;;;;;15.30;32.02;101722.09;5096005;28;20028;-61
2021/05/03 11:25:59;;;;;;;26.25;14.10;;;;;;;15.32;30.59;101715.88;5097002;28;20474;-61
2021/05/03 11:28:30;;;;;;;25.95;14.10;;;;;;;15.97;30.38;101721.03;5103477;28;20039;-61
2021/05/03 11:31:01;;;;;;;26.23;12.80;;;;;;;16.27;29.78;101713.78;5096155;28;20058;-61
2021/05/03 11:33:37;;;;;;;26.10;12.82;;;;;;;16.28;29.63;101709.34;5096039;28;20032;-61
2021/05/03 11:36:32;;;;;;;24.92;12.25;;;;;;;16.11;30.27;101718.31;5098687;28;20445;-62